createdAt,value
2022-09-14T04:31:01.064Z,15.67
2022-09-14T04:32:00.971Z,15.64
2022-09-14T04:33:00.960Z,15.59
2022-09-14T04:34:00.947Z,15.52
2022-09-14T04:35:00.934Z,15.52
2022-09-14T04:36:00.898Z,15.54
2022-09-14T04:37:00.890Z,15.56
2022-09-14T04:38:00.877Z,15.52
2022-09-14T04:39:00.862Z,15.49
2022-09-14T04:40:00.916Z,15.48
2022-09-14T04:41:00.836Z,15.46
2022-09-14T04:42:00.827Z,15.45
2022-09-14T04:43:00.807Z,15.45
2022-09-14T04:45:07.856Z,15.43
2022-09-14T04:46:00.799Z,15.42
2022-09-14T04:47:00.793Z,15.41
2022-09-14T04:48:00.755Z,15.38
2022-09-14T04:49:00.765Z,15.38
2022-09-14T04:50:00.748Z,15.38
2022-09-14T04:51:00.714Z,15.38
2022-09-14T04:52:00.697Z,15.39
2022-09-14T04:53:00.686Z,15.42
2022-09-14T04:54:00.695Z,15.48
2022-09-14T04:55:00.677Z,15.48
2022-09-14T04:56:00.672Z,15.54
2022-09-14T04:57:00.627Z,15.60
2022-09-14T04:58:00.617Z,15.60
2022-09-14T04:59:00.606Z,15.60
2022-09-14T05:00:00.617Z,15.61
2022-09-14T05:01:00.586Z,15.66
2022-09-14T05:02:00.614Z,15.70
2022-09-14T05:03:00.615Z,15.68
2022-09-14T05:04:00.540Z,15.68
2022-09-14T05:05:00.536Z,15.72
2022-09-14T05:06:00.516Z,15.74
2022-09-14T05:07:00.504Z,15.68
2022-09-14T05:08:00.488Z,15.63
2022-09-14T05:09:00.475Z,15.66
2022-09-14T05:10:00.482Z,15.66
2022-09-14T05:11:00.452Z,15.56
2022-09-14T05:12:00.447Z,15.49
2022-09-14T05:13:00.417Z,15.39
2022-09-14T05:14:00.409Z,15.30
2022-09-14T05:15:00.419Z,15.33
2022-09-14T05:16:00.427Z,15.36
2022-09-14T05:17:00.358Z,15.39
2022-09-14T05:18:00.353Z,15.38
2022-09-14T05:19:00.335Z,15.38
2022-09-14T05:20:00.335Z,15.39
2022-09-14T05:21:01.117Z,15.43
2022-09-14T05:22:00.295Z,15.42
2022-09-14T05:23:00.282Z,15.42
2022-09-14T05:24:00.275Z,15.43
2022-09-14T05:25:00.265Z,15.46
2022-09-14T05:26:00.255Z,15.46
2022-09-14T05:27:02.102Z,15.42
2022-09-14T05:28:00.225Z,15.41
2022-09-14T05:29:00.204Z,15.42
2022-09-14T05:30:00.226Z,15.41
2022-09-14T05:31:00.287Z,15.31
2022-09-14T05:32:00.165Z,15.26
2022-09-14T05:33:00.155Z,15.23
2022-09-14T05:34:00.155Z,15.20
2022-09-14T05:35:00.153Z,15.20
2022-09-14T05:36:00.125Z,15.23
2022-09-14T05:37:00.121Z,15.31
2022-09-14T05:38:00.094Z,15.35
2022-09-14T05:39:00.082Z,15.31
2022-09-14T05:40:00.185Z,15.30
2022-09-14T05:41:00.056Z,15.28
2022-09-14T05:42:00.089Z,15.27
2022-09-14T05:43:00.034Z,15.24
2022-09-14T05:44:00.014Z,15.27
2022-09-14T05:45:00.017Z,15.31
2022-09-14T05:46:00.015Z,15.35
2022-09-14T05:46:59.974Z,15.31
2022-09-14T05:47:59.964Z,15.21
2022-09-14T05:48:59.944Z,15.15
2022-09-14T05:49:59.953Z,15.15
2022-09-14T05:50:59.924Z,15.15
2022-09-14T05:51:59.915Z,15.15
2022-09-14T05:52:59.894Z,15.17
2022-09-14T05:53:59.987Z,15.21
2022-09-14T05:54:59.884Z,15.23
2022-09-14T05:55:59.864Z,15.21
2022-09-14T05:56:59.844Z,15.20
2022-09-14T05:57:59.844Z,15.19
2022-09-14T05:58:59.822Z,15.20
2022-09-14T05:59:59.833Z,15.20
2022-09-14T06:00:59.793Z,15.20
2022-09-14T06:01:59.890Z,15.19
2022-09-14T06:02:59.763Z,15.15
2022-09-14T06:03:59.761Z,15.17
2022-09-14T06:04:59.808Z,15.19
2022-09-14T06:05:59.733Z,15.12
2022-09-14T06:07:17.401Z,15.06
2022-09-14T06:08:00.706Z,15.08
2022-09-14T06:08:59.693Z,15.01
2022-09-14T06:09:59.697Z,14.93
2022-09-14T06:10:59.683Z,14.93
2022-09-14T06:11:59.653Z,14.91
2022-09-14T06:12:59.632Z,14.87
2022-09-14T06:13:59.624Z,14.88
2022-09-14T06:14:59.762Z,14.88
2022-09-14T06:15:59.603Z,14.91
2022-09-14T06:16:59.594Z,15.02
2022-09-14T06:17:59.612Z,15.11
2022-09-14T06:18:59.565Z,15.17
2022-09-14T06:20:04.057Z,15.09
2022-09-14T06:21:00.554Z,15.09
2022-09-14T06:21:59.526Z,15.05
2022-09-14T06:22:59.513Z,15.01
2022-09-14T06:23:59.504Z,14.95
2022-09-14T06:24:59.492Z,15.01
2022-09-14T06:25:59.473Z,15.05
2022-09-14T06:26:59.454Z,15.15
2022-09-14T06:27:59.554Z,15.20
2022-09-14T06:28:59.484Z,15.12
2022-09-14T06:29:59.446Z,15.11
2022-09-14T06:30:59.451Z,15.13
2022-09-14T06:31:59.424Z,15.06
2022-09-14T06:32:59.382Z,14.98
2022-09-14T06:33:59.374Z,14.93
2022-09-14T06:34:59.414Z,14.93
2022-09-14T06:35:59.386Z,14.87
2022-09-14T06:36:59.332Z,14.86
2022-09-14T06:37:59.322Z,14.91
2022-09-14T06:38:59.310Z,14.99
2022-09-14T06:39:59.347Z,15.03
2022-09-14T06:40:59.291Z,15.09
2022-09-14T06:41:59.301Z,15.15
2022-09-14T06:42:59.251Z,15.19
2022-09-14T06:43:59.262Z,15.19
2022-09-14T06:44:59.231Z,15.09
2022-09-14T06:45:59.224Z,14.95
2022-09-14T06:46:59.201Z,14.90
2022-09-14T06:47:59.191Z,14.84
2022-09-14T06:48:59.171Z,14.84
2022-09-14T06:49:59.155Z,14.83
2022-09-14T06:50:59.170Z,14.81
2022-09-14T06:51:59.131Z,14.80
2022-09-14T06:52:59.120Z,14.81
2022-09-14T06:53:59.101Z,14.90
2022-09-14T06:54:59.142Z,14.93
2022-09-14T06:55:59.111Z,14.93
2022-09-14T06:56:59.070Z,14.95
2022-09-14T06:57:59.061Z,15.02
2022-09-14T06:58:59.109Z,15.06
2022-09-14T06:59:59.029Z,15.12
2022-09-14T07:00:59.031Z,15.15
2022-09-14T07:01:59.001Z,15.15
2022-09-14T07:02:59.033Z,15.15
2022-09-14T07:03:58.980Z,15.12
2022-09-14T07:04:58.971Z,15.08
2022-09-14T07:05:58.960Z,15.06
2022-09-14T07:06:58.950Z,15.09
2022-09-14T07:07:58.921Z,15.06
2022-09-14T07:08:58.922Z,15.09
2022-09-14T07:09:58.901Z,15.08
2022-09-14T07:10:58.930Z,15.06
2022-09-14T07:11:58.869Z,15.02
2022-09-14T07:12:58.860Z,14.93
2022-09-14T07:13:58.875Z,14.86
2022-09-14T07:14:58.841Z,14.80
2022-09-14T07:15:58.840Z,14.81
2022-09-14T07:16:58.810Z,14.90
2022-09-14T07:17:58.789Z,14.94
2022-09-14T07:18:58.779Z,15.03
2022-09-14T07:19:58.770Z,15.06
2022-09-14T07:21:01.251Z,15.09
2022-09-14T07:21:59.739Z,15.09
2022-09-14T07:22:58.738Z,15.15
2022-09-14T07:23:58.719Z,15.17
2022-09-14T07:24:58.710Z,15.12
2022-09-14T07:25:58.707Z,15.13
2022-09-14T07:26:58.681Z,15.12
2022-09-14T07:27:58.669Z,15.15
2022-09-14T07:28:58.662Z,15.15
2022-09-14T07:29:58.640Z,15.09
2022-09-14T07:30:59.209Z,15.01
2022-09-14T07:31:58.618Z,14.84
2022-09-14T07:32:58.609Z,14.72
2022-09-14T07:33:58.599Z,14.69
2022-09-14T07:34:58.580Z,14.68
2022-09-14T07:35:58.569Z,14.69
2022-09-14T07:36:58.548Z,14.72
2022-09-14T07:37:58.552Z,14.83
2022-09-14T07:38:58.571Z,14.87
2022-09-14T07:39:58.583Z,14.87
2022-09-14T07:40:58.531Z,14.75
2022-09-14T07:41:58.488Z,14.69
2022-09-14T07:42:58.479Z,14.71
2022-09-14T07:43:58.458Z,14.68
2022-09-14T07:44:58.448Z,14.68
2022-09-14T07:45:58.498Z,14.67
2022-09-14T07:46:58.426Z,14.69
2022-09-14T07:47:58.412Z,14.75
2022-09-14T07:48:58.396Z,14.81
2022-09-14T07:49:58.378Z,14.88
2022-09-14T07:50:58.379Z,15.08
2022-09-14T07:51:58.366Z,15.23
2022-09-14T07:52:58.347Z,15.28
2022-09-14T07:53:58.338Z,15.28
2022-09-14T07:54:58.319Z,15.36
2022-09-14T07:55:58.327Z,15.45
2022-09-14T07:56:58.297Z,15.54
2022-09-14T07:57:58.288Z,15.66
2022-09-14T07:59:11.461Z,15.85
2022-09-14T07:59:59.257Z,15.93
2022-09-14T08:00:58.276Z,15.89
2022-09-14T08:01:58.409Z,15.79
2022-09-14T08:02:58.218Z,15.74
2022-09-14T08:03:59.782Z,15.67
2022-09-14T08:04:58.195Z,15.74
2022-09-14T08:05:58.188Z,15.79
2022-09-14T08:06:58.168Z,15.76
2022-09-14T08:07:58.157Z,15.78
2022-09-14T08:08:58.141Z,15.68
2022-09-14T08:09:58.135Z,15.64
2022-09-14T08:10:58.115Z,15.67
2022-09-14T08:11:58.121Z,15.72
2022-09-14T08:12:58.086Z,15.68
2022-09-14T08:13:58.077Z,15.66
2022-09-14T08:14:58.059Z,15.68
2022-09-14T08:15:58.046Z,15.64
2022-09-14T08:16:58.117Z,15.74
2022-09-14T08:17:58.021Z,15.89
2022-09-14T08:18:58.006Z,16.03
2022-09-14T08:19:57.997Z,16.12
2022-09-14T08:20:57.992Z,16.15
2022-09-14T08:21:57.981Z,16.20
2022-09-14T08:22:57.947Z,16.30
2022-09-14T08:23:57.950Z,16.37
2022-09-14T08:24:57.929Z,16.20
2022-09-14T08:25:57.957Z,16.06
2022-09-14T08:26:57.917Z,15.89
2022-09-14T08:27:57.887Z,15.78
2022-09-14T08:28:57.877Z,15.72
2022-09-14T08:29:57.880Z,15.67
2022-09-14T08:30:57.857Z,15.61
2022-09-14T08:31:57.867Z,15.61
2022-09-14T08:33:01.689Z,15.57
2022-09-14T08:33:57.807Z,15.45
2022-09-14T08:34:57.798Z,15.38
2022-09-14T08:35:58.493Z,15.38
2022-09-14T08:36:57.812Z,15.31
2022-09-14T08:37:57.767Z,15.21
2022-09-14T08:38:57.736Z,15.15
2022-09-14T08:39:57.775Z,15.11
2022-09-14T08:40:57.726Z,15.11
2022-09-14T08:41:57.705Z,15.12
2022-09-14T08:42:57.686Z,15.13
2022-09-14T08:43:57.676Z,15.17
2022-09-14T08:44:57.663Z,15.13
2022-09-14T08:45:57.686Z,15.19
2022-09-14T08:46:57.645Z,15.24
2022-09-14T08:47:57.625Z,15.21
2022-09-14T08:48:57.606Z,15.24
2022-09-14T08:49:57.595Z,15.20
2022-09-14T08:50:57.575Z,15.19
2022-09-14T08:51:57.585Z,15.24
2022-09-14T08:52:57.565Z,15.23
2022-09-14T08:53:57.546Z,15.21
2022-09-14T08:54:57.526Z,15.12
2022-09-14T08:55:57.515Z,15.13
2022-09-14T08:56:57.506Z,15.17
2022-09-14T08:57:57.486Z,15.19
2022-09-14T08:58:57.473Z,15.20
2022-09-14T08:59:57.464Z,15.23
2022-09-14T09:00:57.498Z,15.21
2022-09-14T09:01:57.446Z,15.21
2022-09-14T09:02:57.425Z,15.21
2022-09-14T09:03:57.450Z,15.26
2022-09-14T09:04:57.393Z,15.27
2022-09-14T09:05:57.385Z,15.26
2022-09-14T09:06:57.384Z,15.23
2022-09-14T09:07:57.355Z,15.23
2022-09-14T09:08:57.336Z,15.27
2022-09-14T09:09:57.325Z,15.27
2022-09-14T09:10:57.314Z,15.30
2022-09-14T09:11:57.307Z,15.28
2022-09-14T09:12:57.286Z,15.30
2022-09-14T09:13:57.275Z,15.30
2022-09-14T09:14:57.256Z,15.33
2022-09-14T09:15:57.302Z,15.38
2022-09-14T09:16:57.244Z,15.42
2022-09-14T09:17:57.225Z,15.43
2022-09-14T09:18:57.204Z,15.48
2022-09-14T09:19:57.194Z,15.51
2022-09-14T09:20:57.174Z,15.45
2022-09-14T09:21:57.184Z,15.45
2022-09-14T09:22:57.154Z,15.48
2022-09-14T09:23:57.145Z,15.45
2022-09-14T09:24:57.144Z,15.45
2022-09-14T09:25:57.117Z,15.49
2022-09-14T09:26:57.113Z,15.49
2022-09-14T09:27:57.084Z,15.48
2022-09-14T09:28:57.074Z,15.48
2022-09-14T09:29:57.065Z,15.56
2022-09-14T09:30:57.043Z,15.64
2022-09-14T09:31:57.126Z,15.74
2022-09-14T09:32:57.014Z,15.81
2022-09-14T09:33:57.012Z,15.78
2022-09-14T09:34:57.002Z,15.82
2022-09-14T09:35:56.985Z,15.78
2022-09-14T09:36:56.973Z,15.72
2022-09-14T09:37:56.953Z,15.66
2022-09-14T09:38:56.934Z,15.57
2022-09-14T09:39:56.977Z,15.52
2022-09-14T09:40:56.914Z,15.51
2022-09-14T09:41:56.913Z,15.56
2022-09-14T09:42:56.884Z,15.59
2022-09-14T09:43:56.874Z,15.66
2022-09-14T09:45:01.304Z,15.70
2022-09-14T09:45:57.853Z,15.72
2022-09-14T09:46:56.913Z,15.72
2022-09-14T09:47:56.834Z,15.68
2022-09-14T09:48:56.804Z,15.70
2022-09-14T09:49:56.793Z,15.78
2022-09-14T09:50:56.784Z,15.92
2022-09-14T09:51:56.786Z,15.84
2022-09-14T09:52:56.753Z,15.70
2022-09-14T09:53:56.741Z,15.64
2022-09-14T09:54:56.725Z,15.63
2022-09-14T09:55:56.713Z,15.64
2022-09-14T09:56:56.712Z,15.64
2022-09-14T09:57:56.693Z,15.61
2022-09-14T09:58:56.679Z,15.57
2022-09-14T09:59:56.671Z,15.48
2022-09-14T10:00:56.685Z,15.46
2022-09-14T10:01:56.730Z,15.46
2022-09-14T10:02:56.622Z,15.46
2022-09-14T10:03:56.613Z,15.54
2022-09-14T10:04:56.600Z,15.60
2022-09-14T10:05:56.583Z,15.59
2022-09-14T10:06:56.582Z,15.60
2022-09-14T10:07:56.561Z,15.49
2022-09-14T10:08:56.532Z,15.52
2022-09-14T10:09:56.531Z,15.49
2022-09-14T10:10:56.515Z,15.48
2022-09-14T10:11:56.522Z,15.46
2022-09-14T10:12:56.481Z,15.43
2022-09-14T10:13:56.481Z,15.39
2022-09-14T10:14:56.463Z,15.33
2022-09-14T10:15:56.484Z,15.31
2022-09-14T10:16:56.456Z,15.36
2022-09-14T10:17:56.422Z,15.35
2022-09-14T10:18:56.416Z,15.26
2022-09-14T10:19:56.402Z,15.27
2022-09-14T10:20:56.382Z,15.26
2022-09-14T10:21:56.389Z,15.20
2022-09-14T10:22:56.360Z,15.24
2022-09-14T10:23:56.343Z,15.28
2022-09-14T10:24:56.331Z,15.38
2022-09-14T10:25:56.322Z,15.43
2022-09-14T10:26:56.319Z,15.46
2022-09-14T10:27:56.291Z,15.52
2022-09-14T10:28:56.271Z,15.45
2022-09-14T10:29:56.271Z,15.41
2022-09-14T10:30:56.316Z,15.41
2022-09-14T10:31:56.270Z,15.30
2022-09-14T10:32:56.224Z,15.26
2022-09-14T10:33:56.211Z,15.24
2022-09-14T10:34:56.192Z,15.19
2022-09-14T10:35:56.190Z,15.12
2022-09-14T10:36:56.182Z,15.09
2022-09-14T10:37:56.161Z,15.09
2022-09-14T10:38:56.141Z,15.13
2022-09-14T10:39:56.151Z,15.23
2022-09-14T10:40:56.119Z,15.19
2022-09-14T10:41:56.123Z,15.26
2022-09-14T10:42:56.092Z,15.30
2022-09-14T10:43:56.080Z,15.35
2022-09-14T10:44:56.088Z,15.33
2022-09-14T10:45:56.051Z,15.33
2022-09-14T10:46:56.110Z,15.33
2022-09-14T10:47:56.029Z,15.35
2022-09-14T10:48:56.018Z,15.38
2022-09-14T10:49:56.011Z,15.43
2022-09-14T10:50:56.045Z,15.45
2022-09-14T10:51:55.972Z,15.48
2022-09-14T10:52:55.971Z,15.45
2022-09-14T10:53:55.950Z,15.45
2022-09-14T10:54:55.931Z,15.38
2022-09-14T10:55:55.922Z,15.33
2022-09-14T10:56:55.901Z,15.38
2022-09-14T10:57:55.901Z,15.39
2022-09-14T10:58:55.879Z,15.41
2022-09-14T10:59:55.868Z,15.36
2022-09-14T11:00:55.873Z,15.33
2022-09-14T11:01:55.973Z,15.35
2022-09-14T11:02:55.921Z,15.28
2022-09-14T11:03:55.810Z,15.19
2022-09-14T11:04:55.799Z,15.19
2022-09-14T11:05:55.787Z,15.17
2022-09-14T11:06:55.769Z,15.12
2022-09-14T11:07:55.769Z,15.12
2022-09-14T11:08:55.741Z,15.13
2022-09-14T11:09:55.731Z,15.21
2022-09-14T11:10:55.718Z,15.28
2022-09-14T11:11:55.715Z,15.30
2022-09-14T11:12:55.710Z,15.35
2022-09-14T11:13:55.680Z,15.38
2022-09-14T11:14:55.667Z,15.39
2022-09-14T11:15:55.696Z,15.39
2022-09-14T11:16:55.649Z,15.38
2022-09-14T11:17:55.649Z,15.43
2022-09-14T11:18:55.610Z,15.46
2022-09-14T11:19:55.599Z,15.45
2022-09-14T11:20:55.601Z,15.41
2022-09-14T11:21:55.579Z,15.45
2022-09-14T11:22:55.572Z,15.49
2022-09-14T11:23:55.551Z,15.51
2022-09-14T11:24:55.537Z,15.51
2022-09-14T11:25:55.519Z,15.51
2022-09-14T11:26:55.500Z,15.48
2022-09-14T11:27:55.508Z,15.48
2022-09-14T11:28:55.478Z,15.48
2022-09-14T11:29:55.471Z,15.52
2022-09-14T11:30:55.538Z,15.54
2022-09-14T11:32:19.238Z,15.52
2022-09-14T11:32:56.438Z,15.49
2022-09-14T11:33:55.408Z,15.54
2022-09-14T11:34:55.403Z,15.54
2022-09-14T11:35:55.388Z,15.56
2022-09-14T11:36:55.368Z,15.48
2022-09-14T11:37:55.378Z,15.45
2022-09-14T11:38:55.339Z,15.45
2022-09-14T11:39:55.357Z,15.48
2022-09-14T11:40:55.317Z,15.48
2022-09-14T11:41:55.321Z,15.41
2022-09-14T11:42:55.298Z,15.33
2022-09-14T11:43:55.278Z,15.27
2022-09-14T11:44:55.258Z,15.20
2022-09-14T11:45:55.295Z,15.13
2022-09-14T11:46:58.797Z,15.08
2022-09-14T11:47:56.237Z,15.06
2022-09-14T11:48:55.539Z,15.02
2022-09-14T11:49:55.200Z,15.09
2022-09-14T11:50:55.179Z,15.19
2022-09-14T11:51:55.177Z,15.28
2022-09-14T11:52:55.168Z,15.38
2022-09-14T11:53:55.150Z,15.42
2022-09-14T11:54:55.126Z,15.35
2022-09-14T11:55:55.118Z,15.30
2022-09-14T11:56:55.109Z,15.31
2022-09-14T11:57:55.106Z,15.36
2022-09-14T11:58:55.076Z,15.41
2022-09-14T11:59:55.069Z,15.35
2022-09-14T12:00:55.048Z,15.33
2022-09-14T12:01:55.039Z,15.27
2022-09-14T12:02:55.137Z,15.26
2022-09-14T12:03:55.231Z,15.26
2022-09-14T12:04:54.997Z,15.26
2022-09-14T12:05:54.990Z,15.27
2022-09-14T12:06:54.970Z,15.27
2022-09-14T12:07:54.967Z,15.31
2022-09-14T12:08:54.937Z,15.35
2022-09-14T12:09:54.932Z,15.42
2022-09-14T12:10:54.916Z,15.49
2022-09-14T12:11:54.908Z,15.59
2022-09-14T12:12:54.918Z,15.78
2022-09-14T12:13:54.890Z,15.92
2022-09-14T12:14:54.872Z,15.89
2022-09-14T12:15:54.947Z,15.79
2022-09-14T12:16:54.851Z,15.75
2022-09-14T12:17:54.840Z,15.70
2022-09-14T12:18:54.883Z,15.64
2022-09-14T12:19:54.796Z,15.61
2022-09-14T12:20:54.787Z,15.61
2022-09-14T12:21:54.776Z,15.63
2022-09-14T12:22:54.758Z,15.67
2022-09-14T12:23:54.757Z,15.64
2022-09-14T12:24:54.727Z,15.60
2022-09-14T12:25:54.719Z,15.43
2022-09-14T12:26:54.697Z,15.38
2022-09-14T12:27:54.702Z,15.42
2022-09-14T12:28:54.686Z,15.46
2022-09-14T12:29:54.732Z,15.46
2022-09-14T12:30:54.708Z,15.54
2022-09-14T12:31:54.644Z,15.68
2022-09-14T12:32:54.629Z,15.81
2022-09-14T12:33:54.627Z,15.85
2022-09-14T12:34:54.597Z,15.93
2022-09-14T12:35:54.594Z,15.97
2022-09-14T12:36:54.576Z,15.99
2022-09-14T12:37:54.566Z,16.00
2022-09-14T12:38:54.557Z,16.04
2022-09-14T12:39:54.581Z,16.09
2022-09-14T12:40:54.526Z,16.09
2022-09-14T12:41:54.515Z,16.12
2022-09-14T12:42:54.495Z,16.14
2022-09-14T12:43:54.493Z,16.11
2022-09-14T12:44:54.468Z,15.89
2022-09-14T12:45:54.512Z,15.72
2022-09-14T12:46:54.445Z,15.59
2022-09-14T12:47:54.442Z,15.51
2022-09-14T12:48:54.429Z,15.51
2022-09-14T12:49:54.405Z,15.49
2022-09-14T12:50:54.398Z,15.52
2022-09-14T12:51:54.376Z,15.54
2022-09-14T12:52:54.357Z,15.51
2022-09-14T12:53:54.366Z,15.54
2022-09-14T12:54:54.335Z,15.57
2022-09-14T12:55:54.325Z,15.56
2022-09-14T12:56:54.319Z,15.51
2022-09-14T12:57:54.306Z,15.48
2022-09-14T12:58:54.310Z,15.51
2022-09-14T12:59:54.276Z,15.54
2022-09-14T13:00:54.256Z,15.56
2022-09-14T13:01:54.399Z,15.46
2022-09-14T13:02:54.328Z,15.36
2022-09-14T13:03:54.248Z,15.35
2022-09-14T13:04:54.214Z,15.36
2022-09-14T13:05:54.195Z,15.45
2022-09-14T13:06:54.176Z,15.48
2022-09-14T13:07:54.166Z,15.43
2022-09-14T13:08:54.154Z,15.42
2022-09-14T13:09:54.156Z,15.38
2022-09-14T13:10:54.115Z,15.38
2022-09-14T13:11:54.114Z,15.43
2022-09-14T13:12:54.095Z,15.48
2022-09-14T13:13:54.125Z,15.51
2022-09-14T13:14:54.064Z,15.46
2022-09-14T13:15:54.094Z,15.51
2022-09-14T13:16:54.048Z,15.57
2022-09-14T13:17:54.035Z,15.60
2022-09-14T13:18:54.015Z,15.61
2022-09-14T13:19:54.016Z,15.60
2022-09-14T13:20:53.984Z,15.64
2022-09-14T13:21:53.979Z,15.75
2022-09-14T13:22:53.964Z,15.81
2022-09-14T13:23:53.958Z,15.86
2022-09-14T13:24:53.946Z,15.81
2022-09-14T13:25:53.942Z,15.79
2022-09-14T13:26:53.904Z,15.70
2022-09-14T13:27:53.894Z,15.64
2022-09-14T13:28:53.918Z,15.57
2022-09-14T13:29:53.885Z,15.60
2022-09-14T13:30:53.882Z,15.64
2022-09-14T13:31:53.844Z,15.64
2022-09-14T13:32:53.832Z,15.66
2022-09-14T13:33:53.824Z,15.66
2022-09-14T13:34:53.815Z,15.63
2022-09-14T13:35:53.794Z,15.61
2022-09-14T13:36:53.775Z,15.60
2022-09-14T13:37:53.774Z,15.60
2022-09-14T13:38:53.773Z,15.60
2022-09-14T13:39:53.796Z,15.63
2022-09-14T13:40:53.724Z,15.64
2022-09-14T13:41:53.715Z,15.59
2022-09-14T13:42:53.694Z,15.54
2022-09-14T13:43:53.699Z,15.46
2022-09-14T13:44:53.713Z,15.39
2022-09-14T13:45:53.740Z,15.36
2022-09-14T13:46:53.653Z,15.31
2022-09-14T13:47:53.632Z,15.33
2022-09-14T13:48:53.623Z,15.38
2022-09-14T13:49:53.613Z,15.48
2022-09-14T13:50:53.638Z,15.59
2022-09-14T13:51:53.583Z,15.61
2022-09-14T13:53:03.158Z,15.66
2022-09-14T13:53:54.556Z,15.61
2022-09-14T13:54:53.554Z,15.57
2022-09-14T13:55:53.551Z,15.60
2022-09-14T13:56:53.526Z,15.59
2022-09-14T13:57:53.505Z,15.59
2022-09-14T13:58:53.498Z,15.52
2022-09-14T13:59:53.484Z,15.54
2022-09-14T14:00:53.496Z,15.59
2022-09-14T14:01:53.553Z,15.61
2022-09-14T14:02:53.492Z,15.68
2022-09-14T14:03:53.421Z,15.76
2022-09-14T14:04:53.423Z,15.82
2022-09-14T14:05:53.394Z,15.92
2022-09-14T14:06:53.384Z,15.93
2022-09-14T14:07:53.371Z,15.96
2022-09-14T14:08:53.353Z,15.99
2022-09-14T14:09:53.353Z,16.03
2022-09-14T14:10:53.333Z,16.01
2022-09-14T14:11:53.314Z,15.97
2022-09-14T14:12:53.319Z,15.97
2022-09-14T14:13:53.291Z,15.93
2022-09-14T14:14:53.292Z,15.94
2022-09-14T14:15:53.263Z,15.94
2022-09-14T14:16:53.341Z,15.89
2022-09-14T14:17:53.241Z,15.93
2022-09-14T14:18:53.247Z,15.94
2022-09-14T14:19:53.222Z,15.96
2022-09-14T14:20:53.202Z,16.00
2022-09-14T14:21:53.182Z,16.04
2022-09-14T14:22:53.182Z,16.06
2022-09-14T14:24:12.196Z,16.06
2022-09-14T14:25:13.807Z,16.06
2022-09-14T14:25:54.138Z,16.00
2022-09-14T14:26:53.122Z,15.93
2022-09-14T14:27:53.110Z,15.86
2022-09-14T14:28:53.101Z,15.88
2022-09-14T14:29:53.095Z,15.93
2022-09-14T14:30:53.073Z,15.92
2022-09-14T14:31:53.129Z,15.89
2022-09-14T14:32:53.050Z,15.86
2022-09-14T14:33:53.053Z,15.85
2022-09-14T14:34:53.042Z,15.86
2022-09-14T14:35:53.004Z,15.86
2022-09-14T14:36:53.002Z,15.92
2022-09-14T14:37:52.982Z,15.96
2022-09-14T14:38:52.972Z,16.00
2022-09-14T14:39:53.034Z,15.99
2022-09-14T14:40:53.047Z,15.94
2022-09-14T14:41:52.933Z,15.94
2022-09-14T14:42:52.922Z,16.00
2022-09-14T14:43:52.903Z,16.03
2022-09-14T14:44:52.910Z,16.09
2022-09-14T14:45:52.923Z,16.07
2022-09-14T14:46:52.871Z,16.07
2022-09-14T14:47:52.852Z,16.09
2022-09-14T14:48:52.840Z,16.14
2022-09-14T14:49:52.833Z,16.15
2022-09-14T14:50:52.811Z,16.18
2022-09-14T14:51:52.799Z,16.20
2022-09-14T14:52:52.791Z,16.20
2022-09-14T14:53:52.771Z,16.18
2022-09-14T14:54:52.772Z,16.20
2022-09-14T14:55:52.741Z,16.16
2022-09-14T14:56:52.754Z,16.15
2022-09-14T14:57:52.726Z,16.15
2022-09-14T14:58:52.772Z,16.12
2022-09-14T14:59:52.712Z,16.12
2022-09-14T15:00:52.728Z,16.09
2022-09-14T15:01:52.671Z,16.09
2022-09-14T15:02:52.653Z,16.11
2022-09-14T15:03:52.779Z,16.09
2022-09-14T15:04:52.640Z,16.09
2022-09-14T15:05:52.622Z,16.03
2022-09-14T15:06:52.601Z,15.99
2022-09-14T15:07:52.594Z,15.97
2022-09-14T15:08:52.571Z,15.99
2022-09-14T15:09:52.581Z,16.03
2022-09-14T15:10:52.552Z,16.12
2022-09-14T15:11:52.539Z,16.15
2022-09-14T15:12:52.531Z,16.22
2022-09-14T15:13:52.515Z,16.23
2022-09-14T15:14:52.502Z,16.22
2022-09-14T15:15:52.489Z,16.12
2022-09-14T15:16:52.543Z,16.01
2022-09-14T15:17:52.490Z,15.99
2022-09-14T15:18:52.443Z,15.96
2022-09-14T15:19:52.450Z,15.96
2022-09-14T15:20:52.419Z,15.97
2022-09-14T15:21:53.690Z,15.99
2022-09-14T15:22:52.390Z,15.96
2022-09-14T15:23:52.380Z,15.96
2022-09-14T15:24:52.380Z,15.94
2022-09-14T15:25:52.381Z,16.00
2022-09-14T15:26:52.338Z,16.04
2022-09-14T15:27:52.333Z,16.04
2022-09-14T15:28:52.321Z,16.03
2022-09-14T15:29:52.310Z,16.06
2022-09-14T15:30:52.282Z,16.03
2022-09-14T15:31:52.416Z,16.01
2022-09-14T15:32:52.259Z,16.03
2022-09-14T15:33:52.268Z,15.94
2022-09-14T15:34:52.240Z,15.82
2022-09-14T15:35:52.229Z,15.79
2022-09-14T15:36:52.210Z,15.81
2022-09-14T15:37:52.199Z,15.82
2022-09-14T15:38:52.189Z,15.79
2022-09-14T15:39:52.224Z,15.76
2022-09-14T15:40:52.150Z,15.75
2022-09-14T15:41:52.149Z,15.75
2022-09-14T15:42:52.130Z,15.79
2022-09-14T15:43:52.139Z,15.79
2022-09-14T15:44:52.120Z,15.78
2022-09-14T15:45:52.155Z,15.79
2022-09-14T15:46:52.079Z,15.84
2022-09-14T15:47:52.069Z,15.88
2022-09-14T15:48:52.050Z,15.94
2022-09-14T15:49:52.060Z,16.03
2022-09-14T15:50:52.030Z,16.07
2022-09-14T15:51:52.020Z,16.04
2022-09-14T15:52:52.000Z,16.01
2022-09-14T15:53:51.989Z,16.06
2022-09-14T15:54:51.989Z,16.11
2022-09-14T15:55:51.967Z,16.03
2022-09-14T15:56:51.941Z,15.99
2022-09-14T15:57:51.951Z,16.03
2022-09-14T15:58:51.958Z,16.01
2022-09-14T15:59:51.929Z,15.94
2022-09-14T16:00:52.028Z,15.85
2022-09-14T16:01:51.922Z,15.81
2022-09-14T16:02:51.869Z,15.82
2022-09-14T16:03:51.869Z,15.82
2022-09-14T16:04:51.878Z,15.79
2022-09-14T16:05:51.839Z,15.76
2022-09-14T16:06:51.820Z,15.79
2022-09-14T16:07:51.809Z,15.81
2022-09-14T16:08:52.017Z,15.86
2022-09-14T16:09:53.450Z,15.92
2022-09-14T16:10:51.772Z,15.96
2022-09-14T16:11:51.759Z,16.00
2022-09-14T16:12:51.739Z,16.00
2022-09-14T16:13:51.747Z,15.88
2022-09-14T16:14:51.729Z,15.84
2022-09-14T16:15:55.470Z,15.85
2022-09-14T16:16:52.747Z,15.86
2022-09-14T16:17:51.678Z,15.94
2022-09-14T16:18:51.716Z,15.94
2022-09-14T16:19:51.650Z,15.97
2022-09-14T16:20:51.638Z,16.00
2022-09-14T16:21:53.745Z,15.94
2022-09-14T16:22:51.608Z,15.92
2022-09-14T16:23:51.616Z,15.93
2022-09-14T16:24:51.588Z,15.97
2022-09-14T16:25:51.578Z,15.96
2022-09-14T16:26:51.558Z,15.93
2022-09-14T16:27:51.549Z,15.86
2022-09-14T16:28:51.548Z,15.89
2022-09-14T16:29:51.518Z,15.96
2022-09-14T16:30:51.508Z,16.01
2022-09-14T16:31:51.546Z,16.04
2022-09-14T16:32:51.478Z,16.09
2022-09-14T16:33:51.519Z,16.09
2022-09-14T16:34:51.450Z,16.11
2022-09-14T16:35:51.448Z,16.06
2022-09-14T16:36:51.436Z,16.03
2022-09-14T16:37:51.425Z,16.00
2022-09-14T16:38:51.455Z,16.00
2022-09-14T16:39:51.431Z,15.96
2022-09-14T16:40:51.397Z,15.89
2022-09-14T16:41:51.367Z,15.92
2022-09-14T16:42:51.356Z,15.93
2022-09-14T16:43:51.350Z,15.92
2022-09-14T16:44:58.396Z,15.93
2022-09-14T16:45:51.475Z,15.97
2022-09-14T16:46:51.354Z,15.99
2022-09-14T16:47:51.297Z,16.00
2022-09-14T16:48:51.356Z,16.01
2022-09-14T16:49:51.287Z,15.99
2022-09-14T16:50:51.246Z,15.99
2022-09-14T16:51:51.239Z,15.96
2022-09-14T16:52:51.217Z,15.96
2022-09-14T16:53:51.237Z,15.94
2022-09-14T16:54:55.896Z,15.94
2022-09-14T16:55:52.185Z,15.93
2022-09-14T16:56:51.166Z,15.92
2022-09-14T16:57:51.160Z,15.88
2022-09-14T16:58:51.136Z,15.85
2022-09-14T16:59:51.137Z,15.85
2022-09-14T17:00:51.205Z,15.82
2022-09-14T17:01:54.593Z,15.81
2022-09-14T17:02:51.086Z,15.78
2022-09-14T17:03:51.099Z,15.76
2022-09-14T17:04:51.089Z,15.75
2022-09-14T17:05:51.054Z,15.74
2022-09-14T17:06:51.034Z,15.68
2022-09-14T17:07:51.030Z,15.67
2022-09-14T17:08:51.006Z,15.64
2022-09-14T17:09:51.006Z,15.63
2022-09-14T17:10:50.997Z,15.67
2022-09-14T17:11:50.977Z,15.72
2022-09-14T17:12:50.958Z,15.75
2022-09-14T17:13:51.022Z,15.79
2022-09-14T17:14:50.948Z,15.82
2022-09-14T17:15:51.011Z,15.88
2022-09-14T17:16:50.997Z,15.86
2022-09-14T17:17:50.886Z,15.84
2022-09-14T17:18:50.876Z,15.85
2022-09-14T17:19:50.880Z,15.85
2022-09-14T17:20:50.845Z,15.84
2022-09-14T17:21:50.837Z,15.79
2022-09-14T17:22:50.816Z,15.79
2022-09-14T17:23:50.806Z,15.76